sensor_id;sensor_type;location;lat;lon;timestamp;temperature;humidity
76567;DHT22;65428;53.194;6.132;2023-04-21T00:01:06;9.10;99.90
76567;DHT22;65428;53.194;6.132;2023-04-21T00:03:35;9.00;99.90
76567;DHT22;65428;53.194;6.132;2023-04-21T00:06:04;9.00;99.90
76567;DHT22;65428;53.194;6.132;2023-04-21T00:08:36;8.90;99.90
76567;DHT22;65428;53.194;6.132;2023-04-21T00:11:06;8.90;99.90
76567;DHT22;65428;53.194;6.132;2023-04-21T00:13:33;8.80;99.90
76567;DHT22;65428;53.194;6.132;2023-04-21T00:16:02;9.10;99.90
76567;DHT22;65428;53.194;6.132;2023-04-21T00:18:28;8.80;99.90
76567;DHT22;65428;53.194;6.132;2023-04-21T00:20:54;9.50;99.90
76567;DHT22;65428;53.194;6.132;2023-04-21T00:23:23;8.90;99.90
76567;DHT22;65428;53.194;6.132;2023-04-21T00:25:48;8.90;99.90
76567;DHT22;65428;53.194;6.132;2023-04-21T00:28:23;8.80;99.90
76567;DHT22;65428;53.194;6.132;2023-04-21T00:33:52;8.80;99.90
76567;DHT22;65428;53.194;6.132;2023-04-21T00:36:33;9.00;99.90
76567;DHT22;65428;53.194;6.132;2023-04-21T00:38:58;8.90;99.90
76567;DHT22;65428;53.194;6.132;2023-04-21T00:41:27;8.70;99.90
76567;DHT22;65428;53.194;6.132;2023-04-21T00:44:11;8.70;99.90
76567;DHT22;65428;53.194;6.132;2023-04-21T00:46:37;8.80;99.90
76567;DHT22;65428;53.194;6.132;2023-04-21T00:49:07;8.60;99.90
76567;DHT22;65428;53.194;6.132;2023-04-21T00:51:41;8.60;99.90
76567;DHT22;65428;53.194;6.132;2023-04-21T00:54:07;8.60;99.90
76567;DHT22;65428;53.194;6.132;2023-04-21T00:56:36;8.80;99.90
76567;DHT22;65428;53.194;6.132;2023-04-21T00:59:11;8.50;99.90
76567;DHT22;65428;53.194;6.132;2023-04-21T01:01:40;8.40;99.90
76567;DHT22;65428;53.194;6.132;2023-04-21T01:04:06;8.30;99.90
76567;DHT22;65428;53.194;6.132;2023-04-21T01:06:34;8.90;99.90
76567;DHT22;65428;53.194;6.132;2023-04-21T01:09:03;8.50;99.90
76567;DHT22;65428;53.194;6.132;2023-04-21T01:11:34;8.10;99.90
76567;DHT22;65428;53.194;6.132;2023-04-21T01:14:00;8.20;99.90
76567;DHT22;65428;53.194;6.132;2023-04-21T01:16:26;8.20;99.90
76567;DHT22;65428;53.194;6.132;2023-04-21T01:19:00;8.20;99.90
76567;DHT22;65428;53.194;6.132;2023-04-21T01:24:37;8.00;99.90
76567;DHT22;65428;53.194;6.132;2023-04-21T01:27:29;8.00;99.90
76567;DHT22;65428;53.194;6.132;2023-04-21T01:29:55;8.10;99.90
76567;DHT22;65428;53.194;6.132;2023-04-21T01:32:33;7.90;99.90
76567;DHT22;65428;53.194;6.132;2023-04-21T01:34:59;7.90;99.90
76567;DHT22;65428;53.194;6.132;2023-04-21T01:40:56;7.80;99.90
76567;DHT22;65428;53.194;6.132;2023-04-21T01:43:23;7.80;99.90
76567;DHT22;65428;53.194;6.132;2023-04-21T01:45:52;7.90;99.90
76567;DHT22;65428;53.194;6.132;2023-04-21T01:48:27;7.80;99.90
76567;DHT22;65428;53.194;6.132;2023-04-21T01:50:56;7.70;99.90
76567;DHT22;65428;53.194;6.132;2023-04-21T01:53:26;7.70;99.90
76567;DHT22;65428;53.194;6.132;2023-04-21T01:56:08;7.70;99.90
76567;DHT22;65428;53.194;6.132;2023-04-21T01:59:08;7.80;99.90
76567;DHT22;65428;53.194;6.132;2023-04-21T02:02:00;7.80;99.90
76567;DHT22;65428;53.194;6.132;2023-04-21T02:04:35;7.50;99.90
76567;DHT22;65428;53.194;6.132;2023-04-21T02:07:03;7.80;99.90
76567;DHT22;65428;53.194;6.132;2023-04-21T02:09:38;7.70;99.90
76567;DHT22;65428;53.194;6.132;2023-04-21T02:12:13;7.70;99.90
76567;DHT22;65428;53.194;6.132;2023-04-21T02:14:43;7.60;99.90
76567;DHT22;65428;53.194;6.132;2023-04-21T02:17:10;7.50;99.90
76567;DHT22;65428;53.194;6.132;2023-04-21T02:19:52;7.50;99.90
76567;DHT22;65428;53.194;6.132;2023-04-21T02:22:27;7.60;99.90
76567;DHT22;65428;53.194;6.132;2023-04-21T02:24:55;7.70;99.90
76567;DHT22;65428;53.194;6.132;2023-04-21T02:27:28;7.60;99.90
76567;DHT22;65428;53.194;6.132;2023-04-21T02:29:59;7.40;99.90
76567;DHT22;65428;53.194;6.132;2023-04-21T02:32:28;7.30;99.90
76567;DHT22;65428;53.194;6.132;2023-04-21T02:35:14;7.60;99.90
76567;DHT22;65428;53.194;6.132;2023-04-21T02:37:49;7.70;99.90
76567;DHT22;65428;53.194;6.132;2023-04-21T02:40:20;7.70;99.90
76567;DHT22;65428;53.194;6.132;2023-04-21T02:42:55;7.40;99.90
76567;DHT22;65428;53.194;6.132;2023-04-21T02:45:21;7.60;99.90
76567;DHT22;65428;53.194;6.132;2023-04-21T02:47:47;7.50;99.90
76567;DHT22;65428;53.194;6.132;2023-04-21T02:50:12;7.50;99.90
76567;DHT22;65428;53.194;6.132;2023-04-21T02:53:06;7.60;99.90
76567;DHT22;65428;53.194;6.132;2023-04-21T02:55:34;7.40;99.90
76567;DHT22;65428;53.194;6.132;2023-04-21T02:58:06;7.30;99.90
76567;DHT22;65428;53.194;6.132;2023-04-21T03:00:31;7.40;99.90
76567;DHT22;65428;53.194;6.132;2023-04-21T03:02:57;7.50;99.90
76567;DHT22;65428;53.194;6.132;2023-04-21T03:05:32;7.20;99.90
76567;DHT22;65428;53.194;6.132;2023-04-21T03:08:00;7.70;99.90
76567;DHT22;65428;53.194;6.132;2023-04-21T03:10:32;7.30;99.90
76567;DHT22;65428;53.194;6.132;2023-04-21T03:13:10;7.30;99.90
76567;DHT22;65428;53.194;6.132;2023-04-21T03:15:46;7.30;99.90
76567;DHT22;65428;53.194;6.132;2023-04-21T03:18:21;7.40;99.90
76567;DHT22;65428;53.194;6.132;2023-04-21T03:20:47;7.30;99.90
76567;DHT22;65428;53.194;6.132;2023-04-21T03:23:19;7.40;99.90
76567;DHT22;65428;53.194;6.132;2023-04-21T03:25:45;7.50;99.90
76567;DHT22;65428;53.194;6.132;2023-04-21T03:28:28;7.30;99.90
76567;DHT22;65428;53.194;6.132;2023-04-21T03:30:54;7.60;99.90
76567;DHT22;65428;53.194;6.132;2023-04-21T03:33:32;7.40;99.90
76567;DHT22;65428;53.194;6.132;2023-04-21T03:36:07;7.20;99.90
76567;DHT22;65428;53.194;6.132;2023-04-21T03:38:36;7.40;99.90
76567;DHT22;65428;53.194;6.132;2023-04-21T03:41:08;7.30;99.90
76567;DHT22;65428;53.194;6.132;2023-04-21T03:43:33;7.40;99.90
76567;DHT22;65428;53.194;6.132;2023-04-21T03:46:02;7.40;99.90
76567;DHT22;65428;53.194;6.132;2023-04-21T03:48:37;7.50;99.90
76567;DHT22;65428;53.194;6.132;2023-04-21T03:51:09;7.50;99.90
76567;DHT22;65428;53.194;6.132;2023-04-21T03:53:35;7.40;99.90
76567;DHT22;65428;53.194;6.132;2023-04-21T03:56:09;7.50;99.90
76567;DHT22;65428;53.194;6.132;2023-04-21T03:58:40;7.40;99.90
76567;DHT22;65428;53.194;6.132;2023-04-21T04:01:11;7.50;99.90
76567;DHT22;65428;53.194;6.132;2023-04-21T04:04:06;7.50;99.90
76567;DHT22;65428;53.194;6.132;2023-04-21T04:06:52;7.40;99.90
76567;DHT22;65428;53.194;6.132;2023-04-21T04:09:33;7.40;99.90
76567;DHT22;65428;53.194;6.132;2023-04-21T04:14:53;7.50;99.90
76567;DHT22;65428;53.194;6.132;2023-04-21T04:17:25;7.40;99.90
76567;DHT22;65428;53.194;6.132;2023-04-21T04:19:53;7.50;99.90
76567;DHT22;65428;53.194;6.132;2023-04-21T04:22:19;7.40;99.90
76567;DHT22;65428;53.194;6.132;2023-04-21T04:24:54;7.60;99.90
76567;DHT22;65428;53.194;6.132;2023-04-21T04:27:24;7.50;99.90
76567;DHT22;65428;53.194;6.132;2023-04-21T04:29:54;7.50;99.90
76567;DHT22;65428;53.194;6.132;2023-04-21T04:32:29;7.70;99.90
76567;DHT22;65428;53.194;6.132;2023-04-21T04:37:40;7.60;99.90
76567;DHT22;65428;53.194;6.132;2023-04-21T04:40:11;7.70;99.90
76567;DHT22;65428;53.194;6.132;2023-04-21T04:42:48;7.60;99.90
76567;DHT22;65428;53.194;6.132;2023-04-21T04:45:17;7.80;99.90
76567;DHT22;65428;53.194;6.132;2023-04-21T04:47:49;8.00;99.90
76567;DHT22;65428;53.194;6.132;2023-04-21T04:50:18;7.80;99.90
76567;DHT22;65428;53.194;6.132;2023-04-21T04:52:53;7.80;99.90
76567;DHT22;65428;53.194;6.132;2023-04-21T04:55:22;7.80;99.90
76567;DHT22;65428;53.194;6.132;2023-04-21T05:00:36;8.10;99.90
76567;DHT22;65428;53.194;6.132;2023-04-21T05:03:02;7.60;99.90
76567;DHT22;65428;53.194;6.132;2023-04-21T05:06:08;8.00;99.90
76567;DHT22;65428;53.194;6.132;2023-04-21T05:08:34;8.10;99.90
76567;DHT22;65428;53.194;6.132;2023-04-21T05:10:59;8.20;99.90
76567;DHT22;65428;53.194;6.132;2023-04-21T05:13:33;8.30;99.90
76567;DHT22;65428;53.194;6.132;2023-04-21T05:15:59;8.00;99.90
76567;DHT22;65428;53.194;6.132;2023-04-21T05:18:31;8.30;99.90
76567;DHT22;65428;53.194;6.132;2023-04-21T05:21:00;8.50;99.90
76567;DHT22;65428;53.194;6.132;2023-04-21T05:23:38;8.30;99.90
76567;DHT22;65428;53.194;6.132;2023-04-21T05:26:03;8.50;99.90
76567;DHT22;65428;53.194;6.132;2023-04-21T05:28:32;8.60;99.90
76567;DHT22;65428;53.194;6.132;2023-04-21T05:31:03;8.70;99.90
76567;DHT22;65428;53.194;6.132;2023-04-21T05:33:28;8.60;99.90
76567;DHT22;65428;53.194;6.132;2023-04-21T05:35:56;9.00;99.90
76567;DHT22;65428;53.194;6.132;2023-04-21T05:38:21;9.10;99.90
76567;DHT22;65428;53.194;6.132;2023-04-21T05:40:54;9.20;99.90
76567;DHT22;65428;53.194;6.132;2023-04-21T05:43:20;9.10;99.90
76567;DHT22;65428;53.194;6.132;2023-04-21T05:45:53;9.20;99.90
76567;DHT22;65428;53.194;6.132;2023-04-21T05:48:37;9.30;99.90
76567;DHT22;65428;53.194;6.132;2023-04-21T05:51:09;9.30;99.90
76567;DHT22;65428;53.194;6.132;2023-04-21T05:53:39;9.40;99.90
76567;DHT22;65428;53.194;6.132;2023-04-21T05:56:11;9.10;99.90
76567;DHT22;65428;53.194;6.132;2023-04-21T05:58:37;9.50;99.90
76567;DHT22;65428;53.194;6.132;2023-04-21T06:01:04;9.80;99.90
76567;DHT22;65428;53.194;6.132;2023-04-21T06:03:31;9.70;99.90
76567;DHT22;65428;53.194;6.132;2023-04-21T06:05:58;9.80;99.90
76567;DHT22;65428;53.194;6.132;2023-04-21T06:08:24;10.10;99.90
76567;DHT22;65428;53.194;6.132;2023-04-21T06:10:49;9.90;99.90
76567;DHT22;65428;53.194;6.132;2023-04-21T06:13:15;9.70;99.90
76567;DHT22;65428;53.194;6.132;2023-04-21T06:15:41;10.20;99.90
76567;DHT22;65428;53.194;6.132;2023-04-21T06:18:09;10.60;99.90
76567;DHT22;65428;53.194;6.132;2023-04-21T06:20:35;10.10;99.90
76567;DHT22;65428;53.194;6.132;2023-04-21T06:23:01;10.90;99.90
76567;DHT22;65428;53.194;6.132;2023-04-21T06:25:37;10.40;99.90
76567;DHT22;65428;53.194;6.132;2023-04-21T06:28:03;10.50;99.90
76567;DHT22;65428;53.194;6.132;2023-04-21T06:30:29;10.50;99.90
76567;DHT22;65428;53.194;6.132;2023-04-21T06:33:10;10.70;99.90
76567;DHT22;65428;53.194;6.132;2023-04-21T06:35:35;10.70;99.90
76567;DHT22;65428;53.194;6.132;2023-04-21T06:38:10;10.80;99.90
76567;DHT22;65428;53.194;6.132;2023-04-21T06:40:35;10.70;99.90
76567;DHT22;65428;53.194;6.132;2023-04-21T06:43:01;10.70;99.90
76567;DHT22;65428;53.194;6.132;2023-04-21T06:45:27;10.80;99.90
76567;DHT22;65428;53.194;6.132;2023-04-21T06:47:52;10.80;99.90
76567;DHT22;65428;53.194;6.132;2023-04-21T06:50:18;10.70;99.90
76567;DHT22;65428;53.194;6.132;2023-04-21T06:52:44;10.90;99.90
76567;DHT22;65428;53.194;6.132;2023-04-21T06:55:09;11.30;99.90
76567;DHT22;65428;53.194;6.132;2023-04-21T06:57:41;11.10;99.90
76567;DHT22;65428;53.194;6.132;2023-04-21T07:00:07;11.20;99.90
76567;DHT22;65428;53.194;6.132;2023-04-21T07:02:34;11.30;99.90
76567;DHT22;65428;53.194;6.132;2023-04-21T07:05:00;11.60;99.90
76567;DHT22;65428;53.194;6.132;2023-04-21T07:07:26;11.60;99.90
76567;DHT22;65428;53.194;6.132;2023-04-21T07:09:52;11.70;99.90
76567;DHT22;65428;53.194;6.132;2023-04-21T07:12:20;11.90;99.90
76567;DHT22;65428;53.194;6.132;2023-04-21T07:14:46;11.80;99.90
76567;DHT22;65428;53.194;6.132;2023-04-21T07:17:14;11.90;99.90
76567;DHT22;65428;53.194;6.132;2023-04-21T07:19:48;12.30;99.90
76567;DHT22;65428;53.194;6.132;2023-04-21T07:22:13;12.30;99.90
76567;DHT22;65428;53.194;6.132;2023-04-21T07:24:39;12.10;99.90
76567;DHT22;65428;53.194;6.132;2023-04-21T07:27:05;12.40;99.90
76567;DHT22;65428;53.194;6.132;2023-04-21T07:29:35;12.80;99.90
76567;DHT22;65428;53.194;6.132;2023-04-21T07:32:07;12.40;99.90
76567;DHT22;65428;53.194;6.132;2023-04-21T07:34:50;12.40;99.90
76567;DHT22;65428;53.194;6.132;2023-04-21T07:37:17;13.10;99.90
76567;DHT22;65428;53.194;6.132;2023-04-21T07:39:51;12.50;99.90
76567;DHT22;65428;53.194;6.132;2023-04-21T07:42:40;13.00;99.90
76567;DHT22;65428;53.194;6.132;2023-04-21T07:45:08;12.80;99.90
76567;DHT22;65428;53.194;6.132;2023-04-21T07:47:37;13.10;99.90
76567;DHT22;65428;53.194;6.132;2023-04-21T07:50:03;13.00;99.90
76567;DHT22;65428;53.194;6.132;2023-04-21T07:52:35;13.10;99.90
76567;DHT22;65428;53.194;6.132;2023-04-21T07:55:27;13.30;99.90
76567;DHT22;65428;53.194;6.132;2023-04-21T07:58:03;13.20;99.90
76567;DHT22;65428;53.194;6.132;2023-04-21T08:00:42;13.60;99.90
76567;DHT22;65428;53.194;6.132;2023-04-21T08:03:14;13.50;99.90
76567;DHT22;65428;53.194;6.132;2023-04-21T08:05:43;13.60;99.90
76567;DHT22;65428;53.194;6.132;2023-04-21T08:08:09;13.90;99.90
76567;DHT22;65428;53.194;6.132;2023-04-21T08:10:36;14.00;99.90
76567;DHT22;65428;53.194;6.132;2023-04-21T08:13:05;14.30;99.90
76567;DHT22;65428;53.194;6.132;2023-04-21T08:18:37;14.10;99.90
76567;DHT22;65428;53.194;6.132;2023-04-21T08:21:05;14.40;99.90
76567;DHT22;65428;53.194;6.132;2023-04-21T08:23:45;14.00;99.90
76567;DHT22;65428;53.194;6.132;2023-04-21T08:26:11;14.20;99.90
76567;DHT22;65428;53.194;6.132;2023-04-21T08:28:37;14.50;99.90
76567;DHT22;65428;53.194;6.132;2023-04-21T08:31:06;14.50;99.90
76567;DHT22;65428;53.194;6.132;2023-04-21T08:33:32;14.50;99.90
76567;DHT22;65428;53.194;6.132;2023-04-21T08:35:57;14.50;99.90
76567;DHT22;65428;53.194;6.132;2023-04-21T08:38:50;15.00;99.90
76567;DHT22;65428;53.194;6.132;2023-04-21T08:41:18;14.90;99.90
76567;DHT22;65428;53.194;6.132;2023-04-21T08:43:44;14.80;99.90
76567;DHT22;65428;53.194;6.132;2023-04-21T08:46:11;15.00;99.90
76567;DHT22;65428;53.194;6.132;2023-04-21T08:48:45;15.10;99.90
76567;DHT22;65428;53.194;6.132;2023-04-21T08:51:24;15.10;99.90
76567;DHT22;65428;53.194;6.132;2023-04-21T08:53:57;15.30;99.90
76567;DHT22;65428;53.194;6.132;2023-04-21T08:56:27;15.20;99.90
76567;DHT22;65428;53.194;6.132;2023-04-21T08:58:56;15.40;99.90
76567;DHT22;65428;53.194;6.132;2023-04-21T09:01:21;15.60;99.90
76567;DHT22;65428;53.194;6.132;2023-04-21T09:03:50;15.20;99.90
76567;DHT22;65428;53.194;6.132;2023-04-21T09:06:18;15.70;99.90
76567;DHT22;65428;53.194;6.132;2023-04-21T09:08:52;16.20;99.90
76567;DHT22;65428;53.194;6.132;2023-04-21T09:11:20;16.00;99.90
76567;DHT22;65428;53.194;6.132;2023-04-21T09:13:46;15.90;99.90
76567;DHT22;65428;53.194;6.132;2023-04-21T09:16:18;16.10;99.90
76567;DHT22;65428;53.194;6.132;2023-04-21T09:18:49;16.30;99.90
76567;DHT22;65428;53.194;6.132;2023-04-21T09:21:36;16.90;99.90
76567;DHT22;65428;53.194;6.132;2023-04-21T09:24:03;16.30;99.10
76567;DHT22;65428;53.194;6.132;2023-04-21T09:26:56;16.40;99.90
76567;DHT22;65428;53.194;6.132;2023-04-21T09:29:25;16.60;99.90
76567;DHT22;65428;53.194;6.132;2023-04-21T09:32:04;16.90;98.40
76567;DHT22;65428;53.194;6.132;2023-04-21T09:34:45;16.70;98.80
76567;DHT22;65428;53.194;6.132;2023-04-21T09:37:11;16.80;95.10
76567;DHT22;65428;53.194;6.132;2023-04-21T09:39:44;16.80;98.40
76567;DHT22;65428;53.194;6.132;2023-04-21T09:42:13;17.00;99.40
76567;DHT22;65428;53.194;6.132;2023-04-21T09:44:41;17.10;97.80
76567;DHT22;65428;53.194;6.132;2023-04-21T09:47:16;17.60;94.90
76567;DHT22;65428;53.194;6.132;2023-04-21T09:49:46;17.50;97.00
76567;DHT22;65428;53.194;6.132;2023-04-21T09:52:19;18.00;94.10
76567;DHT22;65428;53.194;6.132;2023-04-21T09:55:14;18.00;92.00
76567;DHT22;65428;53.194;6.132;2023-04-21T09:57:41;18.20;87.40
76567;DHT22;65428;53.194;6.132;2023-04-21T10:00:28;18.40;81.60
76567;DHT22;65428;53.194;6.132;2023-04-21T10:03:06;18.40;72.60
76567;DHT22;65428;53.194;6.132;2023-04-21T10:05:39;18.30;74.30
76567;DHT22;65428;53.194;6.132;2023-04-21T10:08:07;18.90;82.40
76567;DHT22;65428;53.194;6.132;2023-04-21T10:10:35;18.80;73.50
76567;DHT22;65428;53.194;6.132;2023-04-21T10:13:31;18.90;69.90
76567;DHT22;65428;53.194;6.132;2023-04-21T10:16:08;19.00;74.40
76567;DHT22;65428;53.194;6.132;2023-04-21T10:18:49;19.20;67.50
76567;DHT22;65428;53.194;6.132;2023-04-21T10:21:17;19.50;71.30
76567;DHT22;65428;53.194;6.132;2023-04-21T10:23:49;19.30;66.50
76567;DHT22;65428;53.194;6.132;2023-04-21T10:29:34;19.70;64.60
76567;DHT22;65428;53.194;6.132;2023-04-21T10:32:40;19.50;59.80
76567;DHT22;65428;53.194;6.132;2023-04-21T10:35:22;20.10;63.70
76567;DHT22;65428;53.194;6.132;2023-04-21T10:37:48;20.80;63.40
76567;DHT22;65428;53.194;6.132;2023-04-21T10:40:41;21.40;61.20
76567;DHT22;65428;53.194;6.132;2023-04-21T10:43:41;21.90;55.30
76567;DHT22;65428;53.194;6.132;2023-04-21T10:46:35;21.90;53.80
76567;DHT22;65428;53.194;6.132;2023-04-21T10:49:27;21.80;53.30
76567;DHT22;65428;53.194;6.132;2023-04-21T10:57:15;22.40;52.10
76567;DHT22;65428;53.194;6.132;2023-04-21T10:59:41;22.80;50.90
76567;DHT22;65428;53.194;6.132;2023-04-21T11:02:13;22.80;51.40
76567;DHT22;65428;53.194;6.132;2023-04-21T11:04:42;22.90;49.40
76567;DHT22;65428;53.194;6.132;2023-04-21T11:07:24;23.00;51.10
76567;DHT22;65428;53.194;6.132;2023-04-21T11:10:07;23.10;49.30
76567;DHT22;65428;53.194;6.132;2023-04-21T11:12:37;23.20;48.40
76567;DHT22;65428;53.194;6.132;2023-04-21T11:15:08;23.40;49.00
76567;DHT22;65428;53.194;6.132;2023-04-21T11:17:35;23.30;49.60
76567;DHT22;65428;53.194;6.132;2023-04-21T11:20:04;23.70;47.80
76567;DHT22;65428;53.194;6.132;2023-04-21T11:22:31;23.90;48.20
76567;DHT22;65428;53.194;6.132;2023-04-21T11:24:57;23.70;46.00
76567;DHT22;65428;53.194;6.132;2023-04-21T11:27:26;23.50;46.30
76567;DHT22;65428;53.194;6.132;2023-04-21T11:29:51;23.90;48.00
76567;DHT22;65428;53.194;6.132;2023-04-21T11:32:17;23.80;45.00
76567;DHT22;65428;53.194;6.132;2023-04-21T11:34:43;23.80;46.30
76567;DHT22;65428;53.194;6.132;2023-04-21T11:37:14;23.70;45.90
76567;DHT22;65428;53.194;6.132;2023-04-21T11:39:41;23.30;45.60
76567;DHT22;65428;53.194;6.132;2023-04-21T11:42:08;23.30;45.80
76567;DHT22;65428;53.194;6.132;2023-04-21T11:44:40;23.40;45.20
76567;DHT22;65428;53.194;6.132;2023-04-21T11:47:20;23.60;46.10
76567;DHT22;65428;53.194;6.132;2023-04-21T11:49:50;24.00;44.80
76567;DHT22;65428;53.194;6.132;2023-04-21T11:52:31;24.40;44.50
76567;DHT22;65428;53.194;6.132;2023-04-21T11:55:02;24.30;42.80
76567;DHT22;65428;53.194;6.132;2023-04-21T11:57:30;23.90;43.10
76567;DHT22;65428;53.194;6.132;2023-04-21T12:00:15;23.00;43.50
76567;DHT22;65428;53.194;6.132;2023-04-21T12:02:42;22.80;46.20
76567;DHT22;65428;53.194;6.132;2023-04-21T12:05:09;22.60;46.50
76567;DHT22;65428;53.194;6.132;2023-04-21T12:07:37;22.60;46.30
76567;DHT22;65428;53.194;6.132;2023-04-21T12:10:21;22.20;45.90
76567;DHT22;65428;53.194;6.132;2023-04-21T12:12:47;22.00;46.30
76567;DHT22;65428;53.194;6.132;2023-04-21T12:15:20;21.80;47.90
76567;DHT22;65428;53.194;6.132;2023-04-21T12:17:52;21.50;47.60
76567;DHT22;65428;53.194;6.132;2023-04-21T12:20:21;21.50;49.10
76567;DHT22;65428;53.194;6.132;2023-04-21T12:22:47;21.60;48.60
76567;DHT22;65428;53.194;6.132;2023-04-21T12:25:13;21.40;47.60
76567;DHT22;65428;53.194;6.132;2023-04-21T12:27:50;21.40;48.50
76567;DHT22;65428;53.194;6.132;2023-04-21T12:30:17;21.90;49.10
76567;DHT22;65428;53.194;6.132;2023-04-21T12:32:43;22.00;48.40
76567;DHT22;65428;53.194;6.132;2023-04-21T12:35:09;22.50;45.50
76567;DHT22;65428;53.194;6.132;2023-04-21T12:37:35;22.20;44.70
76567;DHT22;65428;53.194;6.132;2023-04-21T12:40:01;22.20;44.70
76567;DHT22;65428;53.194;6.132;2023-04-21T12:42:26;22.00;43.60
76567;DHT22;65428;53.194;6.132;2023-04-21T12:44:52;22.20;43.30
76567;DHT22;65428;53.194;6.132;2023-04-21T12:47:18;22.40;42.10
76567;DHT22;65428;53.194;6.132;2023-04-21T12:49:43;22.70;43.60
76567;DHT22;65428;53.194;6.132;2023-04-21T12:52:09;22.70;41.20
76567;DHT22;65428;53.194;6.132;2023-04-21T12:54:35;22.70;41.80
76567;DHT22;65428;53.194;6.132;2023-04-21T12:57:01;22.50;41.50
76567;DHT22;65428;53.194;6.132;2023-04-21T12:59:26;22.20;41.30
76567;DHT22;65428;53.194;6.132;2023-04-21T13:01:52;22.10;41.80
76567;DHT22;65428;53.194;6.132;2023-04-21T13:04:18;21.80;41.30
76567;DHT22;65428;53.194;6.132;2023-04-21T13:06:43;21.90;43.10
76567;DHT22;65428;53.194;6.132;2023-04-21T13:09:10;21.50;42.70
76567;DHT22;65428;53.194;6.132;2023-04-21T13:11:35;21.70;43.40
76567;DHT22;65428;53.194;6.132;2023-04-21T13:14:01;21.90;44.50
76567;DHT22;65428;53.194;6.132;2023-04-21T13:16:29;22.20;43.10
76567;DHT22;65428;53.194;6.132;2023-04-21T13:18:55;22.10;41.70
76567;DHT22;65428;53.194;6.132;2023-04-21T13:21:21;22.00;41.20
76567;DHT22;65428;53.194;6.132;2023-04-21T13:23:46;22.10;41.20
76567;DHT22;65428;53.194;6.132;2023-04-21T13:26:13;21.90;41.50
76567;DHT22;65428;53.194;6.132;2023-04-21T13:28:39;21.80;42.00
76567;DHT22;65428;53.194;6.132;2023-04-21T13:31:04;21.60;41.50
76567;DHT22;65428;53.194;6.132;2023-04-21T13:33:31;22.00;42.60
76567;DHT22;65428;53.194;6.132;2023-04-21T13:36:00;22.20;42.30
76567;DHT22;65428;53.194;6.132;2023-04-21T13:38:26;22.50;40.80
76567;DHT22;65428;53.194;6.132;2023-04-21T13:40:52;23.10;40.90
76567;DHT22;65428;53.194;6.132;2023-04-21T13:43:18;23.00;39.40
76567;DHT22;65428;53.194;6.132;2023-04-21T13:45:44;22.80;38.80
76567;DHT22;65428;53.194;6.132;2023-04-21T13:48:12;23.10;39.40
76567;DHT22;65428;53.194;6.132;2023-04-21T13:50:38;23.00;39.00
76567;DHT22;65428;53.194;6.132;2023-04-21T13:53:03;22.70;39.20
76567;DHT22;65428;53.194;6.132;2023-04-21T13:55:30;22.40;39.70
76567;DHT22;65428;53.194;6.132;2023-04-21T13:57:57;22.50;39.60
76567;DHT22;65428;53.194;6.132;2023-04-21T14:00:23;22.40;39.90
76567;DHT22;65428;53.194;6.132;2023-04-21T14:02:48;22.10;39.20
76567;DHT22;65428;53.194;6.132;2023-04-21T14:05:14;22.20;39.50
76567;DHT22;65428;53.194;6.132;2023-04-21T14:07:42;22.10;37.40
76567;DHT22;65428;53.194;6.132;2023-04-21T14:10:08;22.00;38.10
76567;DHT22;65428;53.194;6.132;2023-04-21T14:12:34;22.00;38.70
76567;DHT22;65428;53.194;6.132;2023-04-21T14:14:59;22.10;39.60
76567;DHT22;65428;53.194;6.132;2023-04-21T14:17:25;22.00;38.30
76567;DHT22;65428;53.194;6.132;2023-04-21T14:19:51;22.10;38.20
76567;DHT22;65428;53.194;6.132;2023-04-21T14:22:17;22.20;39.10
76567;DHT22;65428;53.194;6.132;2023-04-21T14:24:44;22.20;38.50
76567;DHT22;65428;53.194;6.132;2023-04-21T14:27:09;22.10;38.80
76567;DHT22;65428;53.194;6.132;2023-04-21T14:29:35;22.00;38.60
76567;DHT22;65428;53.194;6.132;2023-04-21T14:32:01;22.00;38.90
76567;DHT22;65428;53.194;6.132;2023-04-21T14:34:26;21.90;40.00
76567;DHT22;65428;53.194;6.132;2023-04-21T14:36:52;22.10;40.70
76567;DHT22;65428;53.194;6.132;2023-04-21T14:39:18;22.20;39.60
76567;DHT22;65428;53.194;6.132;2023-04-21T14:41:44;22.10;40.00
76567;DHT22;65428;53.194;6.132;2023-04-21T14:44:10;22.00;39.80
76567;DHT22;65428;53.194;6.132;2023-04-21T14:46:36;21.70;39.40
76567;DHT22;65428;53.194;6.132;2023-04-21T14:49:02;22.00;38.80
76567;DHT22;65428;53.194;6.132;2023-04-21T14:51:28;22.00;38.20
76567;DHT22;65428;53.194;6.132;2023-04-21T14:53:54;21.70;39.80
76567;DHT22;65428;53.194;6.132;2023-04-21T14:56:20;21.80;39.60
76567;DHT22;65428;53.194;6.132;2023-04-21T14:58:45;21.50;39.20
76567;DHT22;65428;53.194;6.132;2023-04-21T15:01:11;21.50;38.40
76567;DHT22;65428;53.194;6.132;2023-04-21T15:03:37;21.40;39.20
76567;DHT22;65428;53.194;6.132;2023-04-21T15:06:03;21.30;38.00
76567;DHT22;65428;53.194;6.132;2023-04-21T15:08:29;21.40;38.40
76567;DHT22;65428;53.194;6.132;2023-04-21T15:10:55;21.30;39.20
76567;DHT22;65428;53.194;6.132;2023-04-21T15:13:21;21.60;39.30
76567;DHT22;65428;53.194;6.132;2023-04-21T15:15:47;21.30;39.00
76567;DHT22;65428;53.194;6.132;2023-04-21T15:18:14;21.20;39.50
76567;DHT22;65428;53.194;6.132;2023-04-21T15:20:40;21.20;39.00
76567;DHT22;65428;53.194;6.132;2023-04-21T15:23:07;21.30;39.10
76567;DHT22;65428;53.194;6.132;2023-04-21T15:25:36;21.10;39.30
76567;DHT22;65428;53.194;6.132;2023-04-21T15:28:01;21.00;39.40
76567;DHT22;65428;53.194;6.132;2023-04-21T15:30:27;20.90;38.80
76567;DHT22;65428;53.194;6.132;2023-04-21T15:32:53;20.90;39.30
76567;DHT22;65428;53.194;6.132;2023-04-21T15:35:18;20.90;39.30
76567;DHT22;65428;53.194;6.132;2023-04-21T15:37:44;21.10;39.80
76567;DHT22;65428;53.194;6.132;2023-04-21T15:40:10;21.00;39.00
76567;DHT22;65428;53.194;6.132;2023-04-21T15:42:36;20.90;39.30
76567;DHT22;65428;53.194;6.132;2023-04-21T15:45:01;20.90;40.10
76567;DHT22;65428;53.194;6.132;2023-04-21T15:47:28;20.90;39.90
76567;DHT22;65428;53.194;6.132;2023-04-21T15:49:54;20.90;40.00
76567;DHT22;65428;53.194;6.132;2023-04-21T15:52:20;21.10;39.80
76567;DHT22;65428;53.194;6.132;2023-04-21T15:54:46;20.80;39.80
76567;DHT22;65428;53.194;6.132;2023-04-21T15:57:11;20.70;39.40
76567;DHT22;65428;53.194;6.132;2023-04-21T15:59:37;20.90;40.10
76567;DHT22;65428;53.194;6.132;2023-04-21T16:02:03;20.70;40.30
76567;DHT22;65428;53.194;6.132;2023-04-21T16:04:29;20.60;41.80
76567;DHT22;65428;53.194;6.132;2023-04-21T16:06:54;20.60;41.60
76567;DHT22;65428;53.194;6.132;2023-04-21T16:09:20;20.60;41.90
76567;DHT22;65428;53.194;6.132;2023-04-21T16:11:47;20.70;42.00
76567;DHT22;65428;53.194;6.132;2023-04-21T16:14:16;20.80;42.90
76567;DHT22;65428;53.194;6.132;2023-04-21T16:16:42;21.10;42.80
76567;DHT22;65428;53.194;6.132;2023-04-21T16:19:08;20.90;41.50
76567;DHT22;65428;53.194;6.132;2023-04-21T16:21:35;20.90;41.60
76567;DHT22;65428;53.194;6.132;2023-04-21T16:24:01;20.90;42.00
76567;DHT22;65428;53.194;6.132;2023-04-21T16:26:27;20.90;40.80